createdAt,value
2022-12-08T00:00:07.478Z,100602.94
2022-12-08T00:02:52.776Z,100613.41
2022-12-08T00:05:57.077Z,100596.00
2022-12-08T00:09:00.652Z,100590.06
2022-12-08T00:11:45.823Z,100580.06
2022-12-08T00:14:39.378Z,100583.50
2022-12-08T00:17:24.194Z,100582.44
2022-12-08T00:20:09.675Z,100581.47
2022-12-08T00:22:54.913Z,100575.97
2022-12-08T00:25:39.939Z,100568.97
2022-12-08T00:28:24.817Z,100565.41
2022-12-08T00:31:11.466Z,100556.09
2022-12-08T00:33:56.621Z,100557.78
2022-12-08T00:36:42.407Z,100551.94
2022-12-08T00:39:27.414Z,100556.00
2022-12-08T00:42:12.216Z,100551.84
2022-12-08T00:44:57.320Z,100542.75
2022-12-08T00:47:42.455Z,100545.38
2022-12-08T00:50:27.439Z,100541.34
2022-12-08T00:53:12.635Z,100541.47
2022-12-08T00:55:57.706Z,100536.13
2022-12-08T00:58:42.633Z,100534.31
2022-12-08T01:01:27.833Z,100539.69
2022-12-08T01:04:15.694Z,100535.38
2022-12-08T01:07:00.670Z,100530.75
2022-12-08T01:09:45.750Z,100532.66
2022-12-08T01:12:30.709Z,100538.59
2022-12-08T01:15:15.995Z,100533.84
2022-12-08T01:18:02.113Z,100536.94
2022-12-08T01:20:47.381Z,100529.31
2022-12-08T01:23:33.553Z,100533.13
2022-12-08T01:26:19.545Z,100531.59
2022-12-08T01:29:04.560Z,100525.03
2022-12-08T01:31:49.788Z,100524.69
2022-12-08T01:34:34.888Z,100541.84
2022-12-08T01:37:19.932Z,100538.13
2022-12-08T01:40:06.205Z,100537.19
2022-12-08T01:42:52.487Z,100537.31
2022-12-08T01:45:37.566Z,100530.88
2022-12-08T01:48:26.988Z,100535.16
2022-12-08T01:51:12.620Z,100533.72
2022-12-08T01:53:57.888Z,100527.66
2022-12-08T01:56:52.493Z,100520.03
2022-12-08T01:59:46.672Z,100524.34
2022-12-08T02:02:57.094Z,100513.84
2022-12-08T02:05:42.521Z,100516.09
2022-12-08T02:08:28.212Z,100507.63
2022-12-08T02:11:13.730Z,100513.47
2022-12-08T02:14:00.972Z,100505.50
2022-12-08T02:17:05.572Z,100507.31
2022-12-08T02:20:32.583Z,100501.91
2022-12-08T02:23:32.525Z,100499.91
2022-12-08T02:26:47.891Z,100499.06
2022-12-08T02:29:44.120Z,100500.38
2022-12-08T02:33:05.221Z,100497.50
2022-12-08T02:35:57.861Z,100487.97
2022-12-08T02:39:12.288Z,100490.72
2022-12-08T02:42:23.570Z,100491.28
2022-12-08T02:45:21.603Z,100478.91
2022-12-08T02:48:08.942Z,100476.84
2022-12-08T02:50:53.891Z,100475.91
2022-12-08T02:53:39.576Z,100467.09
2022-12-08T02:56:53.782Z,100461.88
2022-12-08T02:59:57.605Z,100465.88
2022-12-08T03:02:45.538Z,100446.69
2022-12-08T03:05:49.421Z,100449.31
2022-12-08T03:08:58.391Z,100448.47
2022-12-08T03:11:53.103Z,100454.31
2022-12-08T03:14:40.637Z,100449.91
2022-12-08T03:17:29.588Z,100446.47
2022-12-08T03:20:19.220Z,100441.09
2022-12-08T03:23:08.519Z,100433.09
2022-12-08T03:26:02.527Z,100435.88
2022-12-08T03:28:47.540Z,100433.34
2022-12-08T03:31:36.825Z,100429.78
2022-12-08T03:34:25.775Z,100427.28
2022-12-08T03:37:10.946Z,100417.63
2022-12-08T03:39:56.181Z,100423.00
2022-12-08T03:42:41.296Z,100415.69
2022-12-08T03:45:26.585Z,100414.06
2022-12-08T03:48:11.340Z,100423.13
2022-12-08T03:50:56.510Z,100407.38
2022-12-08T03:53:41.935Z,100416.81
2022-12-08T03:56:30.706Z,100409.44
2022-12-08T03:59:15.742Z,100415.38
2022-12-08T04:02:00.938Z,100407.63
2022-12-08T04:04:46.039Z,100407.38
2022-12-08T04:07:30.859Z,100405.34
2022-12-08T04:10:16.174Z,100394.53
2022-12-08T04:13:01.024Z,100398.97
2022-12-08T04:15:47.495Z,100404.06
2022-12-08T04:18:33.589Z,100387.25
2022-12-08T04:21:18.839Z,100394.28
2022-12-08T04:24:04.095Z,100389.44
2022-12-08T04:26:50.507Z,100384.88
2022-12-08T04:29:35.201Z,100392.06
2022-12-08T04:32:20.302Z,100390.28
2022-12-08T04:35:05.583Z,100393.50
2022-12-08T04:37:50.502Z,100384.56
2022-12-08T04:40:35.387Z,100388.72
2022-12-08T04:43:20.330Z,100377.28
2022-12-08T04:46:08.949Z,100389.03
2022-12-08T04:48:53.910Z,100379.13
2022-12-08T04:51:39.073Z,100391.25
2022-12-08T04:54:23.815Z,100380.53
2022-12-08T04:57:09.005Z,100381.75
2022-12-08T04:59:54.201Z,100377.31
2022-12-08T05:02:40.085Z,100375.69
2022-12-08T05:05:25.223Z,100366.78
2022-12-08T05:08:11.004Z,100376.56
2022-12-08T05:11:07.258Z,100381.53
2022-12-08T05:13:51.922Z,100378.34
2022-12-08T05:16:37.828Z,100376.81
2022-12-08T05:19:23.002Z,100379.28
2022-12-08T05:22:08.196Z,100379.03
2022-12-08T05:24:53.370Z,100378.53
2022-12-08T05:27:38.489Z,100369.00
2022-12-08T05:30:23.493Z,100371.13
2022-12-08T05:33:08.861Z,100357.09
2022-12-08T05:35:53.835Z,100348.50
2022-12-08T05:38:39.521Z,100357.59
2022-12-08T05:41:24.979Z,100354.31
2022-12-08T05:44:09.875Z,100348.94
2022-12-08T05:46:55.100Z,100348.69
2022-12-08T05:49:40.090Z,100343.94
2022-12-08T05:52:24.895Z,100338.56
2022-12-08T05:55:10.193Z,100333.06
2022-12-08T05:57:55.187Z,100329.25
2022-12-08T06:00:40.545Z,100323.78
2022-12-08T06:03:25.655Z,100328.75
2022-12-08T06:06:10.598Z,100329.59
2022-12-08T06:08:56.195Z,100328.13
2022-12-08T06:11:42.427Z,100323.00
2022-12-08T06:14:27.574Z,100318.28
2022-12-08T06:17:12.576Z,100327.56
2022-12-08T06:19:57.552Z,100324.03
2022-12-08T06:22:42.644Z,100330.69
2022-12-08T06:25:27.620Z,100327.94
2022-12-08T06:28:12.869Z,100328.06
2022-12-08T06:30:58.286Z,100329.75
2022-12-08T06:33:43.666Z,100320.66
2022-12-08T06:36:28.887Z,100327.81
2022-12-08T06:39:14.083Z,100324.34
2022-12-08T06:42:17.795Z,100319.81
2022-12-08T06:45:03.679Z,100316.25
2022-12-08T06:47:48.674Z,100321.88
2022-12-08T06:50:34.926Z,100325.59
2022-12-08T06:53:19.830Z,100321.88
2022-12-08T06:56:05.784Z,100308.06
2022-12-08T06:58:52.799Z,100327.22
2022-12-08T07:01:38.163Z,100323.78
2022-12-08T07:04:23.119Z,100331.53
2022-12-08T07:07:08.197Z,100331.53
2022-12-08T07:09:53.400Z,100334.50
2022-12-08T07:12:38.620Z,100331.09
2022-12-08T07:15:23.452Z,100342.66
2022-12-08T07:18:08.525Z,100351.56
2022-12-08T07:20:53.678Z,100348.38
2022-12-08T07:23:39.225Z,100342.44
2022-12-08T07:26:24.956Z,100353.28
2022-12-08T07:29:10.806Z,100349.59
2022-12-08T07:31:55.794Z,100351.31
2022-12-08T07:34:40.696Z,100350.56
2022-12-08T07:37:25.499Z,100354.97
2022-12-08T07:40:11.295Z,100352.66
2022-12-08T07:42:56.408Z,100344.34
2022-12-08T07:45:42.213Z,100344.78
2022-12-08T07:48:27.232Z,100344.53
2022-12-08T07:51:14.221Z,100340.63
2022-12-08T07:53:59.412Z,100343.59
2022-12-08T07:56:44.484Z,100353.03
2022-12-08T07:59:29.659Z,100345.19
2022-12-08T08:02:26.922Z,100344.34
2022-12-08T08:05:12.520Z,100343.69
2022-12-08T08:07:57.700Z,100343.00
2022-12-08T08:10:43.233Z,100341.38
2022-12-08T08:13:28.103Z,100345.28
2022-12-08T08:16:13.663Z,100339.69
2022-12-08T08:18:58.669Z,100339.19
2022-12-08T08:21:45.898Z,100345.56
2022-12-08T08:24:31.082Z,100345.72
2022-12-08T08:27:16.160Z,100349.72
2022-12-08T08:30:01.306Z,100362.72
2022-12-08T08:32:46.716Z,100349.53
2022-12-08T08:35:31.569Z,100354.13
2022-12-08T08:38:16.602Z,100343.41
2022-12-08T08:41:07.509Z,100343.22
2022-12-08T08:43:54.277Z,100333.16
2022-12-08T08:46:39.431Z,100341.88
2022-12-08T08:49:24.423Z,100337.47
2022-12-08T08:52:09.393Z,100341.50
2022-12-08T08:54:54.578Z,100338.00
2022-12-08T08:57:39.755Z,100328.78
2022-12-08T09:00:24.711Z,100326.97
2022-12-08T09:03:10.282Z,100325.31
2022-12-08T09:05:56.246Z,100331.72
2022-12-08T09:08:42.157Z,100334.84
2022-12-08T09:11:27.265Z,100322.75
2022-12-08T09:14:14.505Z,100326.47
2022-12-08T09:16:59.622Z,100328.66
2022-12-08T09:19:44.813Z,100321.88
2022-12-08T09:22:29.813Z,100331.97
2022-12-08T09:25:14.923Z,100334.19
2022-12-08T09:27:59.978Z,100330.53
2022-12-08T09:30:45.063Z,100330.53
2022-12-08T09:33:29.858Z,100330.09
2022-12-08T09:36:14.976Z,100331.44
2022-12-08T09:39:00.038Z,100336.13
2022-12-08T09:41:52.342Z,100341.88
2022-12-08T09:44:47.811Z,100335.28
2022-12-08T09:47:47.356Z,100333.13
2022-12-08T09:50:37.507Z,100348.50
2022-12-08T09:53:32.039Z,100320.84
2022-12-08T09:56:26.606Z,100315.66
2022-12-08T09:59:34.607Z,100327.34
2022-12-08T10:02:24.785Z,100322.97
2022-12-08T10:05:13.563Z,100313.03
2022-12-08T10:08:09.961Z,100311.41
2022-12-08T10:10:59.148Z,100303.91
2022-12-08T10:13:58.752Z,100304.03
2022-12-08T10:16:48.970Z,100297.97
2022-12-08T10:19:34.922Z,100299.38
2022-12-08T10:22:23.166Z,100302.25
2022-12-08T10:25:15.098Z,100292.28
2022-12-08T10:28:00.141Z,100293.31
2022-12-08T10:30:44.922Z,100293.50
2022-12-08T10:33:33.740Z,100277.16
2022-12-08T10:36:18.539Z,100277.13
2022-12-08T10:39:03.720Z,100282.53
2022-12-08T10:41:51.569Z,100281.94
2022-12-08T10:44:52.186Z,100273.56
2022-12-08T10:47:45.087Z,100281.09
2022-12-08T10:50:42.498Z,100270.13
2022-12-08T10:53:28.438Z,100267.47
2022-12-08T10:56:17.561Z,100270.00
2022-12-08T10:59:14.810Z,100269.69
2022-12-08T11:02:00.216Z,100254.59
2022-12-08T11:04:46.790Z,100252.41
2022-12-08T11:07:31.954Z,100245.41
2022-12-08T11:10:20.251Z,100252.66
2022-12-08T11:13:12.990Z,100245.41
2022-12-08T11:15:58.405Z,100244.28
2022-12-08T11:18:55.546Z,100236.41
2022-12-08T11:21:42.604Z,100223.72
2022-12-08T11:24:31.210Z,100232.25
2022-12-08T11:27:19.759Z,100217.22
2022-12-08T11:30:17.452Z,100233.50
2022-12-08T11:33:15.801Z,100224.94
2022-12-08T11:36:04.770Z,100231.97
2022-12-08T11:38:55.179Z,100216.66
2022-12-08T11:41:45.729Z,100218.19
2022-12-08T11:44:37.765Z,100211.28
2022-12-08T11:47:30.540Z,100209.91
2022-12-08T11:50:21.817Z,100205.34
2022-12-08T11:53:16.736Z,100204.50
2022-12-08T11:56:10.657Z,100199.94
2022-12-08T11:59:02.771Z,100201.47
2022-12-08T12:01:48.345Z,100197.03
2022-12-08T12:04:44.039Z,100188.59
2022-12-08T12:07:56.006Z,100190.53
2022-12-08T12:10:59.824Z,100185.69
2022-12-08T12:13:56.597Z,100184.06
2022-12-08T12:16:56.606Z,100189.72
2022-12-08T12:19:41.448Z,100182.41
2022-12-08T12:22:32.661Z,100174.66
2022-12-08T12:25:21.506Z,100183.38
2022-12-08T12:28:09.123Z,100184.75
2022-12-08T12:31:01.092Z,100174.50
2022-12-08T12:33:47.030Z,100170.22
2022-12-08T12:36:32.555Z,100166.50
2022-12-08T12:39:23.205Z,100169.41
2022-12-08T12:42:08.001Z,100166.09
2022-12-08T12:45:12.258Z,100166.34
2022-12-08T12:47:57.752Z,100166.38
2022-12-08T12:50:45.172Z,100162.91
2022-12-08T12:53:29.954Z,100168.16
2022-12-08T12:56:49.962Z,100164.97
2022-12-08T13:00:05.640Z,100160.13
2022-12-08T13:02:53.210Z,100162.47
2022-12-08T13:05:49.931Z,100160.69
2022-12-08T13:08:34.987Z,100154.75
2022-12-08T13:11:22.202Z,100151.03
2022-12-08T13:14:33.923Z,100152.69
2022-12-08T13:17:28.267Z,100159.28
2022-12-08T13:20:24.447Z,100159.44
2022-12-08T13:23:23.346Z,100152.56
2022-12-08T13:26:27.974Z,100153.09
2022-12-08T13:29:20.467Z,100159.72
2022-12-08T13:32:08.281Z,100159.56
2022-12-08T13:35:00.133Z,100155.16
2022-12-08T13:37:54.475Z,100152.41
2022-12-08T13:40:42.430Z,100150.31
2022-12-08T13:44:10.622Z,100149.78
2022-12-08T13:47:31.613Z,100149.53
2022-12-08T13:54:35.434Z,100139.56
2022-12-08T13:59:45.541Z,100155.84
2022-12-08T14:02:39.536Z,100152.00
2022-12-08T14:06:10.335Z,100147.28
2022-12-08T14:09:10.408Z,100147.16
2022-12-08T14:12:07.289Z,100148.81
2022-12-08T14:15:05.298Z,100152.94
2022-12-08T14:17:53.169Z,100155.16
2022-12-08T14:21:12.250Z,100151.69
2022-12-08T14:23:45.877Z,100151.81
2022-12-08T14:26:34.784Z,100153.75
2022-12-08T14:29:37.490Z,100151.41
2022-12-08T14:32:31.271Z,100150.59
2022-12-08T14:35:31.499Z,100151.56
2022-12-08T14:38:19.483Z,100150.19
2022-12-08T14:41:07.166Z,100149.75
2022-12-08T14:43:59.774Z,100152.78
2022-12-08T14:47:05.864Z,100154.28
2022-12-08T14:49:51.537Z,100158.59
2022-12-08T14:52:43.943Z,100151.41
2022-12-08T14:55:36.908Z,100155.97
2022-12-08T14:58:28.032Z,100151.50
2022-12-08T15:01:16.977Z,100165.88
2022-12-08T15:04:14.658Z,100165.72
2022-12-08T15:07:05.865Z,100158.00
2022-12-08T15:10:16.242Z,100157.72
2022-12-08T15:13:20.057Z,100162.13
2022-12-08T15:16:24.896Z,100159.22
2022-12-08T15:19:24.304Z,100165.69
2022-12-08T15:22:20.701Z,100170.13
2022-12-08T15:25:11.830Z,100165.97
2022-12-08T15:27:57.859Z,100166.63
2022-12-08T15:30:42.993Z,100167.44
2022-12-08T15:33:28.369Z,100164.97
2022-12-08T15:36:13.375Z,100169.50
2022-12-08T15:38:58.317Z,100154.88
2022-12-08T15:41:43.469Z,100163.81
2022-12-08T15:44:29.217Z,100161.88
2022-12-08T15:47:20.120Z,100164.91
2022-12-08T15:50:07.075Z,100155.94
2022-12-08T15:52:52.579Z,100155.09
2022-12-08T15:55:39.137Z,100163.09
2022-12-08T15:58:53.093Z,100166.38
2022-12-08T16:01:30.277Z,100170.41
2022-12-08T16:05:06.378Z,100168.28
2022-12-08T16:07:28.658Z,100168.88
2022-12-08T16:10:24.144Z,100164.00
2022-12-08T16:13:56.747Z,100163.53
2022-12-08T16:16:44.717Z,100160.59
2022-12-08T16:19:29.797Z,100154.81
2022-12-08T16:25:25.318Z,100159.00
2022-12-08T16:28:45.335Z,100151.22
2022-12-08T16:31:20.075Z,100152.31
2022-12-08T16:34:08.090Z,100149.50
2022-12-08T16:36:52.993Z,100153.47
2022-12-08T16:39:43.987Z,100157.66
2022-12-08T16:42:47.772Z,100152.19
2022-12-08T16:45:32.839Z,100151.16
2022-12-08T16:48:18.039Z,100155.22
2022-12-08T16:51:04.501Z,100166.91
2022-12-08T16:53:49.673Z,100155.41
2022-12-08T16:56:34.614Z,100152.69
2022-12-08T16:59:19.448Z,100156.63
2022-12-08T17:02:04.646Z,100164.31
2022-12-08T17:04:49.824Z,100161.00
2022-12-08T17:07:35.876Z,100167.22
2022-12-08T17:10:27.667Z,100162.13
2022-12-08T17:13:16.741Z,100169.53
2022-12-08T17:16:02.513Z,100171.16
2022-12-08T17:18:48.036Z,100157.38
2022-12-08T17:21:33.023Z,100157.53
2022-12-08T17:24:21.964Z,100162.41
2022-12-08T17:27:07.547Z,100163.94
2022-12-08T17:29:52.702Z,100161.09
2022-12-08T17:32:38.531Z,100159.13
2022-12-08T17:35:23.967Z,100158.03
2022-12-08T17:38:08.958Z,100150.81
2022-12-08T17:40:58.446Z,100147.22
2022-12-08T17:43:43.987Z,100152.44
2022-12-08T17:46:29.206Z,100150.81
2022-12-08T17:49:20.326Z,100156.13
2022-12-08T17:52:08.956Z,100152.22
2022-12-08T17:54:54.127Z,100158.69
2022-12-08T17:57:39.190Z,100160.09
2022-12-08T18:00:24.359Z,100156.66
2022-12-08T18:03:09.343Z,100154.63
2022-12-08T18:05:54.251Z,100151.06
2022-12-08T18:08:39.918Z,100144.75
2022-12-08T18:11:25.736Z,100141.31
2022-12-08T18:14:11.091Z,100130.03
2022-12-08T18:16:56.154Z,100145.59
2022-12-08T18:19:41.291Z,100151.53
2022-12-08T18:22:26.888Z,100145.63
2022-12-08T18:25:12.515Z,100149.53
2022-12-08T18:27:57.555Z,100151.44
2022-12-08T18:30:42.681Z,100155.59
2022-12-08T18:33:28.129Z,100152.00
2022-12-08T18:36:16.777Z,100142.16
2022-12-08T18:39:05.733Z,100151.16
2022-12-08T18:41:54.395Z,100155.09
2022-12-08T18:44:39.102Z,100152.97
2022-12-08T18:47:24.265Z,100149.06
2022-12-08T18:50:11.513Z,100145.59
2022-12-08T18:52:56.729Z,100146.44
2022-12-08T18:55:41.779Z,100149.16
2022-12-08T18:58:26.690Z,100148.44
2022-12-08T19:01:14.746Z,100153.09
2022-12-08T19:07:06.671Z,100148.34
2022-12-08T19:09:51.512Z,100163.31
2022-12-08T19:12:36.619Z,100169.22
2022-12-08T19:15:21.653Z,100164.97
2022-12-08T19:18:06.713Z,100162.94
2022-12-08T19:20:56.487Z,100162.69
2022-12-08T19:23:41.628Z,100166.38
2022-12-08T19:26:27.893Z,100172.69
2022-12-08T19:29:13.195Z,100176.00
2022-12-08T19:31:58.759Z,100175.19
2022-12-08T19:34:44.095Z,100176.97
2022-12-08T19:37:30.211Z,100175.19
2022-12-08T19:40:33.778Z,100176.50
2022-12-08T19:43:40.056Z,100160.09
2022-12-08T19:46:26.095Z,100164.38
2022-12-08T19:49:11.128Z,100166.03
2022-12-08T19:51:56.637Z,100165.22
2022-12-08T19:54:41.540Z,100159.13
2022-12-08T19:57:26.207Z,100163.06
2022-12-08T20:00:12.784Z,100158.66
2022-12-08T20:02:59.588Z,100163.88
2022-12-08T20:05:46.722Z,100167.06
2022-12-08T20:08:31.886Z,100163.97
2022-12-08T20:11:16.814Z,100164.81
2022-12-08T20:14:02.222Z,100166.34
2022-12-08T20:16:47.368Z,100156.50
2022-12-08T20:19:32.097Z,100168.34
2022-12-08T20:22:17.637Z,100165.41
2022-12-08T20:25:03.089Z,100158.72
2022-12-08T20:27:47.883Z,100162.56
2022-12-08T20:30:32.843Z,100164.66
2022-12-08T20:33:18.892Z,100161.69
2022-12-08T20:36:06.411Z,100159.34
2022-12-08T20:38:53.215Z,100155.50
2022-12-08T20:41:39.363Z,100161.31
2022-12-08T20:44:24.618Z,100152.81
2022-12-08T20:47:10.924Z,100154.97
2022-12-08T20:49:56.005Z,100153.91
2022-12-08T20:52:40.948Z,100153.06
2022-12-08T20:55:26.350Z,100150.22
2022-12-08T20:58:12.194Z,100154.50
2022-12-08T21:00:57.273Z,100156.66
2022-12-08T21:03:44.063Z,100157.22
2022-12-08T21:06:29.579Z,100157.00
2022-12-08T21:09:15.038Z,100153.22
2022-12-08T21:12:00.160Z,100162.94
2022-12-08T21:14:45.240Z,100155.22
2022-12-08T21:17:30.487Z,100151.44
2022-12-08T21:20:15.473Z,100164.38
2022-12-08T21:23:00.672Z,100152.97
2022-12-08T21:25:47.388Z,100159.38
2022-12-08T21:28:32.442Z,100153.44
2022-12-08T21:31:19.912Z,100151.38
2022-12-08T21:34:05.018Z,100149.63
2022-12-08T21:36:50.434Z,100148.22
2022-12-08T21:39:35.932Z,100149.53
2022-12-08T21:42:40.006Z,100140.00
2022-12-08T21:45:25.120Z,100144.06
2022-12-08T21:48:11.999Z,100145.84
2022-12-08T21:51:04.288Z,100151.78
2022-12-08T21:53:49.302Z,100151.53
2022-12-08T21:56:34.391Z,100155.84
2022-12-08T21:59:20.841Z,100155.94
2022-12-08T22:02:08.080Z,100157.72
2022-12-08T22:04:53.551Z,100154.75
2022-12-08T22:07:40.046Z,100148.69
2022-12-08T22:10:25.023Z,100161.75
2022-12-08T22:13:10.234Z,100162.47
2022-12-08T22:15:59.447Z,100161.28
2022-12-08T22:18:44.918Z,100164.97
2022-12-08T22:21:29.832Z,100166.97
2022-12-08T22:24:16.415Z,100160.28
2022-12-08T22:27:01.489Z,100158.13
2022-12-08T22:29:46.827Z,100161.72
2022-12-08T22:32:32.079Z,100159.81
2022-12-08T22:35:17.135Z,100153.63
2022-12-08T22:38:02.590Z,100149.94
2022-12-08T22:40:47.617Z,100149.56
2022-12-08T22:43:35.875Z,100151.09
2022-12-08T22:46:24.007Z,100149.56
2022-12-08T22:49:09.467Z,100146.47
2022-12-08T22:51:54.642Z,100143.72
2022-12-08T22:54:39.708Z,100149.91
2022-12-08T22:57:24.409Z,100145.81
2022-12-08T23:00:12.050Z,100148.91
2022-12-08T23:02:57.206Z,100142.84
2022-12-08T23:05:42.964Z,100131.91
2022-12-08T23:08:28.044Z,100148.31
2022-12-08T23:11:13.608Z,100137.50
2022-12-08T23:14:00.351Z,100141.88
2022-12-08T23:16:45.934Z,100143.91
2022-12-08T23:19:31.085Z,100146.16
2022-12-08T23:22:16.395Z,100150.94
2022-12-08T23:25:01.224Z,100154.16
2022-12-08T23:27:47.124Z,100159.06
2022-12-08T23:30:32.561Z,100160.00
2022-12-08T23:33:17.511Z,100158.78
2022-12-08T23:36:03.074Z,100156.69
2022-12-08T23:38:48.336Z,100156.44
2022-12-08T23:41:33.732Z,100153.09
2022-12-08T23:44:18.679Z,100156.69
2022-12-08T23:47:04.020Z,100148.59
2022-12-08T23:49:49.161Z,100152.25
2022-12-08T23:52:34.150Z,100143.84
2022-12-08T23:55:19.223Z,100143.94
2022-12-08T23:58:04.251Z,100144.09
